Time;durP1;ratioP1;P1;durP2;ratioP2;P2;SDS_P1;SDS_P2;PMS_P1;PMS_P2;Temp;Humidity;BMP_temperature;BMP_pressure;BME280_temperature;BME280_humidity;BME280_pressure;Samples;Min_cycle;Max_cycle;Signal;HPM_P1;HPM_P2
2023/06/30 00:00:54;;;;;;;3.10;2.10;;;;;;;16.86;100.00;99199.79;91232;1256;139194;-62
2023/06/30 00:02:56;;;;;;;6.30;2.00;;;;;;;16.83;100.00;99197.50;91336;1270;22345;-63
2023/06/30 00:04:58;;;;;;;1.90;1.50;;;;;;;16.84;100.00;99202.15;91230;1269;140221;-63
2023/06/30 00:06:59;;;;;;;1.90;1.80;;;;;;;16.83;100.00;99204.33;91325;1270;22353;-61
2023/06/30 00:09:03;;;;;;;2.10;2.00;;;;;;;16.81;100.00;99201.05;91189;1270;139772;-61
2023/06/30 00:11:05;;;;;;;1.80;1.60;;;;;;;16.81;100.00;99198.96;91307;1271;22354;-61
2023/06/30 00:13:07;;;;;;;2.30;1.70;;;;;;;16.80;100.00;99188.30;91191;1271;139351;-61
2023/06/30 00:15:09;;;;;;;2.70;2.50;;;;;;;16.78;100.00;99189.19;91348;1270;22820;-62
2023/06/30 00:17:11;;;;;;;2.40;2.20;;;;;;;16.74;100.00;99190.67;91225;1257;139363;-62
2023/06/30 00:19:14;;;;;;;1.90;1.80;;;;;;;16.73;100.00;99185.08;91215;1270;22196;-63
2023/06/30 00:21:15;;;;;;;2.10;2.00;;;;;;;16.73;100.00;99192.55;91160;1270;139797;-61
2023/06/30 00:23:17;;;;;;;7.00;2.30;;;;;;;16.72;100.00;99190.00;91275;1270;22462;-62
2023/06/30 00:25:19;;;;;;;4.60;2.20;;;;;;;16.72;100.00;99192.16;91090;1274;138387;-63
2023/06/30 00:27:21;;;;;;;2.80;1.90;;;;;;;16.72;100.00;99190.81;91308;1257;22225;-61
2023/06/30 00:29:23;;;;;;;1.60;1.50;;;;;;;16.69;100.00;99184.39;91190;1270;138889;-62
2023/06/30 00:31:25;;;;;;;1.70;1.60;;;;;;;16.66;100.00;99189.74;91356;1271;22313;-62
2023/06/30 00:33:27;;;;;;;2.20;2.00;;;;;;;16.59;100.00;99192.11;91213;1270;137919;-61
2023/06/30 00:35:29;;;;;;;3.70;1.60;;;;;;;16.59;100.00;99190.34;91236;1272;22534;-61
2023/06/30 00:37:30;;;;;;;3.70;1.90;;;;;;;16.59;100.00;99190.23;91167;1270;138152;-62
2023/06/30 00:39:32;;;;;;;1.60;1.60;;;;;;;16.60;100.00;99186.19;91263;1272;22344;-63
2023/06/30 00:41:35;;;;;;;2.50;1.90;;;;;;;16.62;100.00;99185.45;91129;1270;139076;-65
2023/06/30 00:43:38;;;;;;;2.50;2.40;;;;;;;16.63;100.00;99191.71;91205;1271;22249;-62
2023/06/30 00:45:40;;;;;;;2.70;1.80;;;;;;;16.62;100.00;99194.97;91155;1271;139495;-63
2023/06/30 00:47:42;;;;;;;2.00;1.90;;;;;;;16.54;100.00;99193.94;91314;1271;22934;-61
2023/06/30 00:49:44;;;;;;;2.20;1.90;;;;;;;16.48;100.00;99186.41;91105;1258;138214;-62
2023/06/30 00:51:46;;;;;;;2.50;2.20;;;;;;;16.46;100.00;99188.02;91230;1270;22103;-63
2023/06/30 00:53:47;;;;;;;1.80;1.80;;;;;;;16.45;100.00;99188.10;91155;1271;140491;-62
2023/06/30 00:55:50;;;;;;;2.70;2.40;;;;;;;16.44;100.00;99188.04;91247;1270;22207;-63
2023/06/30 00:57:52;;;;;;;2.00;1.90;;;;;;;16.44;100.00;99194.82;91108;1271;138425;-61
2023/06/30 00:59:54;;;;;;;2.60;2.00;;;;;;;16.43;100.00;99197.07;91200;1269;23517;-62
2023/06/30 01:02:01;;;;;;;1.80;1.60;;;;;;;16.41;100.00;99192.44;91078;1270;140037;-60
2023/06/30 01:04:21;;;;;;;3.80;2.00;;;;;;;16.41;100.00;99188.87;91138;1270;138502;-61
2023/06/30 01:06:29;;;;;;;2.40;2.30;;;;;;;16.44;100.00;99193.42;91227;1270;22346;-62
2023/06/30 01:08:40;;;;;;;2.20;2.10;;;;;;;16.47;100.00;99191.19;91159;1273;138899;-62
2023/06/30 01:10:44;;;;;;;1.60;1.60;;;;;;;16.45;100.00;99190.80;91358;1273;22092;-61
2023/06/30 01:12:48;;;;;;;2.60;1.60;;;;;;;16.41;100.00;99193.12;91149;1270;138518;-63
2023/06/30 01:14:51;;;;;;;2.10;1.80;;;;;;;16.41;100.00;99191.73;91218;1271;22460;-61
2023/06/30 01:16:54;;;;;;;2.90;2.40;;;;;;;16.42;100.00;99191.23;91184;1275;139300;-61
2023/06/30 01:18:58;;;;;;;2.70;2.50;;;;;;;16.40;100.00;99188.70;91328;1275;22108;-62
2023/06/30 01:21:00;;;;;;;1.50;1.40;;;;;;;16.35;100.00;99190.11;91097;1274;138928;-62
2023/06/30 01:23:09;;;;;;;1.90;1.80;;;;;;;16.31;100.00;99197.13;91259;1271;22168;-63
2023/06/30 01:25:20;;;;;;;1.90;1.80;;;;;;;16.29;100.00;99194.58;91218;1256;138538;-62
2023/06/30 01:27:22;;;;;;;2.20;2.10;;;;;;;16.30;100.00;99196.34;91299;1269;22268;-61
2023/06/30 01:29:24;;;;;;;3.20;2.30;;;;;;;16.33;100.00;99195.14;91220;1262;138509;-61
2023/06/30 01:31:25;;;;;;;1.90;1.80;;;;;;;16.33;100.00;99194.45;91345;1275;22256;-62
2023/06/30 01:33:28;;;;;;;3.00;2.70;;;;;;;16.32;100.00;99192.27;91067;1257;139493;-61
2023/06/30 01:35:30;;;;;;;2.30;2.20;;;;;;;16.31;100.00;99193.40;91350;1272;22279;-61
2023/06/30 01:37:32;;;;;;;3.40;3.20;;;;;;;16.30;100.00;99196.90;91002;1274;139347;-62
2023/06/30 01:39:34;;;;;;;3.00;2.80;;;;;;;16.32;100.00;99199.02;91324;1270;22240;-61
2023/06/30 01:41:36;;;;;;;4.10;1.60;;;;;;;16.38;100.00;99206.71;91189;1269;138178;-61
2023/06/30 01:43:39;;;;;;;2.00;1.70;;;;;;;16.43;100.00;99204.71;91321;1265;22287;-62
2023/06/30 01:45:42;;;;;;;2.20;2.00;;;;;;;16.43;100.00;99210.20;91115;1269;138330;-60
2023/06/30 01:47:46;;;;;;;2.10;2.00;;;;;;;16.42;100.00;99215.73;91291;1271;22204;-60
2023/06/30 01:49:48;;;;;;;2.40;2.20;;;;;;;16.40;100.00;99213.94;91055;1260;139395;-61
2023/06/30 01:51:50;;;;;;;3.30;2.50;;;;;;;16.36;100.00;99209.27;91307;1271;22216;-61
2023/06/30 01:53:52;;;;;;;2.40;2.10;;;;;;;16.26;100.00;99200.35;91080;1272;138226;-61
2023/06/30 01:55:54;;;;;;;2.20;2.00;;;;;;;16.27;100.00;99204.07;91336;1270;22310;-61
2023/06/30 01:57:56;;;;;;;2.10;2.00;;;;;;;16.25;100.00;99206.95;91197;1270;139204;-61
2023/06/30 01:59:58;;;;;;;3.80;2.80;;;;;;;16.22;100.00;99201.65;91281;1275;22265;-61
2023/06/30 02:02:00;;;;;;;3.00;1.80;;;;;;;16.21;100.00;99204.05;91122;1270;140189;-61
2023/06/30 02:04:02;;;;;;;2.30;2.10;;;;;;;16.20;100.00;99210.93;91226;1258;22270;-61
2023/06/30 02:06:04;;;;;;;1.90;1.80;;;;;;;16.20;100.00;99212.71;91296;1270;22890;-61
2023/06/30 02:08:06;;;;;;;2.50;2.30;;;;;;;16.17;100.00;99215.63;91242;1273;138395;-61
2023/06/30 02:10:08;;;;;;;5.40;2.40;;;;;;;16.14;100.00;99214.04;91219;1273;22493;-60
2023/06/30 02:12:10;;;;;;;2.30;2.10;;;;;;;16.15;100.00;99216.42;91017;1272;139002;-60
2023/06/30 02:14:11;;;;;;;3.90;2.20;;;;;;;16.18;100.00;99216.94;91337;1270;22449;-61
2023/06/30 02:16:13;;;;;;;2.60;2.40;;;;;;;16.22;100.00;99218.09;91171;1271;140130;-61
2023/06/30 02:18:15;;;;;;;2.40;2.30;;;;;;;16.24;100.00;99219.48;91359;1270;22232;-60
2023/06/30 02:20:17;;;;;;;3.70;2.00;;;;;;;16.21;100.00;99208.36;91141;1271;139297;-60
2023/06/30 02:22:19;;;;;;;2.60;2.40;;;;;;;16.42;100.00;99216.91;91258;1275;22865;-60
2023/06/30 02:24:21;;;;;;;2.40;2.20;;;;;;;16.59;100.00;99211.95;91189;1273;143221;-61
2023/06/30 02:26:24;;;;;;;2.60;2.50;;;;;;;16.74;100.00;99212.84;91317;1269;23204;-61
2023/06/30 02:28:25;;;;;;;5.30;2.20;;;;;;;16.91;100.00;99214.02;91142;1271;139267;-61
2023/06/30 02:30:28;;;;;;;3.90;3.30;;;;;;;17.03;100.00;99217.40;91314;1271;22279;-61
2023/06/30 02:32:31;;;;;;;3.10;2.20;;;;;;;17.13;100.00;99220.65;91206;1271;138120;-60
2023/06/30 02:34:33;;;;;;;2.40;2.10;;;;;;;17.24;100.00;99218.52;91187;1268;22191;-62
2023/06/30 02:36:34;;;;;;;3.40;2.20;;;;;;;17.33;100.00;99216.80;91120;1261;137932;-60
2023/06/30 02:38:36;;;;;;;5.50;2.40;;;;;;;17.48;100.00;99221.48;91334;1269;22343;-62
2023/06/30 02:40:38;;;;;;;2.80;2.40;;;;;;;17.71;100.00;99220.81;91194;1270;138377;-61
2023/06/30 02:42:40;;;;;;;4.60;2.20;;;;;;;17.98;100.00;99215.34;91332;1273;22184;-61
2023/06/30 02:44:41;;;;;;;3.60;2.30;;;;;;;18.23;100.00;99214.02;91186;1272;139309;-62
2023/06/30 02:46:43;;;;;;;2.10;2.00;;;;;;;18.37;100.00;99192.11;91260;1270;22124;-62
2023/06/30 02:48:44;;;;;;;2.00;1.90;;;;;;;18.74;100.00;99212.11;90930;1261;139929;-61
2023/06/30 02:50:46;;;;;;;3.60;3.30;;;;;;;18.96;100.00;99213.38;91166;1271;22243;-61
2023/06/30 02:52:48;;;;;;;3.50;2.50;;;;;;;19.11;100.00;99214.00;91247;1269;139308;-61
2023/06/30 02:54:50;;;;;;;2.00;1.90;;;;;;;19.26;99.76;99209.43;91133;1272;22298;-62
2023/06/30 02:56:52;;;;;;;2.00;1.90;;;;;;;19.36;99.32;99211.20;91052;1268;138453;-62
2023/06/30 02:58:53;;;;;;;1.80;1.70;;;;;;;19.47;99.08;99212.25;91135;1271;22299;-61
2023/06/30 03:00:56;;;;;;;2.40;2.10;;;;;;;19.66;98.20;99213.94;91123;1269;138150;-61
2023/06/30 03:02:58;;;;;;;2.30;2.10;;;;;;;19.89;96.76;99213.10;91212;1272;23029;-63
2023/06/30 03:04:59;;;;;;;2.20;2.10;;;;;;;20.09;95.17;99214.54;91082;1272;138644;-62
2023/06/30 03:07:02;;;;;;;3.60;1.60;;;;;;;20.23;93.55;99212.13;91216;1271;22264;-61
2023/06/30 03:09:04;;;;;;;3.00;2.10;;;;;;;20.34;92.71;99216.13;91200;1258;137804;-61
2023/06/30 03:11:07;;;;;;;1.50;1.50;;;;;;;20.45;93.12;99216.16;91322;1259;22312;-62
2023/06/30 03:13:09;;;;;;;2.20;2.00;;;;;;;20.64;92.03;99216.98;91057;1270;139382;-61
2023/06/30 03:15:11;;;;;;;2.30;1.80;;;;;;;20.87;91.10;99219.39;91069;1269;23085;-61
2023/06/30 03:17:12;;;;;;;2.10;2.00;;;;;;;21.08;89.96;99210.59;91098;1270;138390;-61
2023/06/30 03:19:15;;;;;;;1.40;1.40;;;;;;;21.12;88.14;99216.08;91343;1272;24224;-60
2023/06/30 03:21:17;;;;;;;2.40;1.60;;;;;;;21.01;88.02;99214.77;91005;1259;139029;-60
2023/06/30 03:23:19;;;;;;;4.40;2.40;;;;;;;21.03;89.01;99216.33;91136;1260;23185;-61
2023/06/30 03:25:21;;;;;;;2.20;2.00;;;;;;;21.17;88.11;99222.37;91190;1258;138681;-61
2023/06/30 03:27:23;;;;;;;2.70;2.10;;;;;;;21.38;87.75;99217.19;91308;1274;22449;-61
2023/06/30 03:29:25;;;;;;;5.90;2.20;;;;;;;21.64;86.13;99216.27;91046;1268;138266;-61
2023/06/30 03:31:27;;;;;;;3.80;2.00;;;;;;;21.90;84.48;99212.92;91166;1256;22164;-61
2023/06/30 03:33:29;;;;;;;2.00;1.90;;;;;;;22.13;82.97;99214.36;91053;1276;139213;-63
2023/06/30 03:35:31;;;;;;;2.10;1.90;;;;;;;22.20;81.76;99211.77;91333;1272;22919;-60
2023/06/30 03:37:33;;;;;;;1.80;1.70;;;;;;;22.24;82.10;99210.64;91171;1269;137241;-61
2023/06/30 03:39:34;;;;;;;2.30;1.90;;;;;;;22.37;80.94;99209.60;91317;1272;22990;-61
2023/06/30 03:41:36;;;;;;;1.70;1.60;;;;;;;22.50;79.56;99209.95;91197;1265;137029;-61
2023/06/30 03:43:38;;;;;;;1.70;1.60;;;;;;;22.61;79.16;99212.83;91275;1272;23074;-67
2023/06/30 03:45:39;;;;;;;4.70;1.90;;;;;;;22.69;78.66;99211.45;91090;1269;137333;-68
2023/06/30 03:47:41;;;;;;;1.50;1.40;;;;;;;22.85;77.98;99207.17;91194;1272;22463;-67
2023/06/30 03:49:43;;;;;;;1.80;1.70;;;;;;;23.01;77.42;99212.20;91091;1273;138751;-66
2023/06/30 03:51:44;;;;;;;4.20;2.10;;;;;;;23.13;76.91;99214.61;91172;1274;22408;-67
2023/06/30 03:53:48;;;;;;;2.40;1.70;;;;;;;23.23;76.21;99218.23;91114;1275;137289;-67
2023/06/30 03:55:50;;;;;;;3.50;1.90;;;;;;;23.30;75.78;99225.23;91133;1271;22320;-69
2023/06/30 03:57:52;;;;;;;2.40;2.00;;;;;;;23.41;75.00;99225.18;91166;1270;138782;-76
2023/06/30 03:59:53;;;;;;;2.30;1.30;;;;;;;23.57;75.15;99223.80;91285;1271;23081;-68
2023/06/30 04:01:55;;;;;;;2.80;2.40;;;;;;;23.65;73.92;99213.73;90951;1271;137597;-72
2023/06/30 04:03:57;;;;;;;2.00;1.90;;;;;;;23.68;74.30;99212.33;91152;1270;22304;-67
2023/06/30 04:05:59;;;;;;;1.60;1.50;;;;;;;23.75;73.74;99217.23;91242;1269;136974;-68
2023/06/30 04:08:01;;;;;;;2.30;2.10;;;;;;;23.83;72.92;99223.85;91297;1272;22301;-68
2023/06/30 04:10:03;;;;;;;2.30;2.00;;;;;;;23.95;73.00;99225.57;91274;1269;23031;-68
2023/06/30 04:12:06;;;;;;;1.90;1.70;;;;;;;24.14;72.42;99224.79;91175;1270;137255;-68
2023/06/30 04:14:08;;;;;;;4.60;2.20;;;;;;;24.36;72.04;99222.94;91183;1270;23139;-68
2023/06/30 04:16:09;;;;;;;3.30;1.90;;;;;;;24.61;70.49;99216.86;91005;1271;139407;-68
2023/06/30 04:18:11;;;;;;;3.90;2.40;;;;;;;24.81;69.57;99212.81;91251;1258;23006;-66
2023/06/30 04:20:15;;;;;;;2.10;2.00;;;;;;;24.91;68.33;99207.58;91087;1273;138483;-68
2023/06/30 04:22:17;;;;;;;2.70;1.90;;;;;;;24.91;68.24;99209.98;91264;1258;22570;-67
2023/06/30 04:24:19;;;;;;;6.20;5.10;;;;;;;24.87;68.15;99212.59;91199;1270;139080;-67
2023/06/30 04:26:21;;;;;;;4.70;4.40;;;;;;;24.91;68.91;99212.77;91273;1270;22349;-68
2023/06/30 04:28:22;;;;;;;5.40;4.80;;;;;;;25.04;67.39;99215.65;91166;1269;137280;-68
2023/06/30 04:30:24;;;;;;;5.70;5.20;;;;;;;25.18;67.58;99214.21;91088;1272;22119;-69
2023/06/30 04:32:26;;;;;;;5.60;5.10;;;;;;;25.35;67.05;99211.91;91001;1258;138420;-67
2023/06/30 04:34:28;;;;;;;3.60;2.30;;;;;;;25.46;66.25;99215.14;91330;1270;22801;-72
2023/06/30 04:36:30;;;;;;;3.10;2.80;;;;;;;25.51;66.27;99213.58;91176;1270;137625;-78
2023/06/30 04:40:46;;;;;;;3.60;3.30;;;;;;;25.51;66.23;99216.02;85594;1305;545489;-66
2023/06/30 04:42:47;;;;;;;4.00;3.70;;;;;;;25.57;65.68;99224.66;87444;1287;23270;-69
2023/06/30 04:44:50;;;;;;;2.90;2.70;;;;;;;25.56;65.45;99222.17;90313;1285;136781;-68
2023/06/30 04:46:51;;;;;;;3.10;2.70;;;;;;;25.30;66.01;99222.91;90489;1284;22213;-70
2023/06/30 04:48:55;;;;;;;6.70;6.10;;;;;;;24.83;67.32;99219.02;90327;1285;137882;-71
2023/06/30 04:50:57;;;;;;;5.20;3.60;;;;;;;24.29;69.15;99222.17;90498;1284;22021;-67
2023/06/30 04:52:58;;;;;;;6.90;6.30;;;;;;;23.68;71.52;99227.39;90366;1284;136860;-67
2023/06/30 04:55:00;;;;;;;4.20;3.50;;;;;;;23.06;74.61;99225.63;90385;1282;229856;-67
2023/06/30 04:57:02;;;;;;;2.60;2.40;;;;;;;22.54;76.49;99231.89;90530;1282;139028;-70
2023/06/30 04:59:04;;;;;;;3.90;3.10;;;;;;;22.03;78.92;99232.52;90623;1284;22441;-67
2023/06/30 05:01:06;;;;;;;4.60;3.30;;;;;;;21.65;81.48;99226.72;90561;1282;137751;-69
2023/06/30 05:03:08;;;;;;;3.20;3.00;;;;;;;21.38;83.13;99224.55;90610;1283;22487;-68
2023/06/30 05:05:10;;;;;;;3.20;2.90;;;;;;;21.13;84.66;99223.66;90509;1268;137955;-68
2023/06/30 05:07:11;;;;;;;5.00;3.00;;;;;;;20.94;85.73;99222.91;90626;1282;22335;-67
2023/06/30 05:09:13;;;;;;;3.00;2.80;;;;;;;20.81;87.03;99230.52;90561;1282;137050;-66
2023/06/30 05:11:15;;;;;;;3.10;2.90;;;;;;;20.79;88.10;99234.41;90603;1282;22367;-78
2023/06/30 05:13:18;;;;;;;2.60;2.10;;;;;;;20.86;88.76;99230.67;90566;1282;137949;-69
2023/06/30 05:15:20;;;;;;;3.50;3.20;;;;;;;20.94;88.16;99216.36;90653;1282;23061;-67
2023/06/30 05:17:22;;;;;;;3.80;3.60;;;;;;;21.16;87.18;99224.66;90476;1283;138850;-67
2023/06/30 05:19:24;;;;;;;3.80;3.60;;;;;;;21.30;86.58;99222.85;90627;1282;22303;-67
2023/06/30 05:21:25;;;;;;;4.10;3.70;;;;;;;21.35;86.42;99226.43;90437;1284;137764;-69
2023/06/30 05:23:27;;;;;;;4.10;3.80;;;;;;;21.35;85.88;99231.90;90632;1285;22238;-67
2023/06/30 05:25:29;;;;;;;7.20;6.50;;;;;;;21.30;86.30;99232.45;90450;1282;137597;-66
2023/06/30 05:27:30;;;;;;;3.70;2.70;;;;;;;21.30;86.66;99229.29;90640;1283;22418;-66
2023/06/30 05:29:33;;;;;;;4.70;3.20;;;;;;;21.30;85.51;99226.80;90506;1281;138299;-66
2023/06/30 05:31:34;;;;;;;2.90;2.70;;;;;;;21.25;85.67;99225.70;90621;1282;22173;-70
2023/06/30 05:33:36;;;;;;;3.90;2.80;;;;;;;21.25;86.12;99223.66;90491;1271;137292;-68
2023/06/30 05:35:38;;;;;;;3.40;2.40;;;;;;;21.23;86.11;99225.09;90595;1285;22341;-70
2023/06/30 05:37:39;;;;;;;6.30;3.30;;;;;;;21.17;85.76;99229.30;90529;1282;137989;-68
2023/06/30 05:39:41;;;;;;;2.10;2.00;;;;;;;21.15;85.95;99233.45;90568;1284;23052;-71
2023/06/30 05:41:43;;;;;;;5.20;2.90;;;;;;;21.14;86.62;99228.48;90498;1282;138439;-67
2023/06/30 05:43:44;;;;;;;3.80;2.90;;;;;;;21.14;86.78;99228.47;90585;1282;22341;-68
2023/06/30 05:45:46;;;;;;;3.50;3.20;;;;;;;21.19;86.68;99227.73;90494;1267;137715;-67
2023/06/30 05:47:47;;;;;;;3.70;3.50;;;;;;;21.29;86.84;99229.27;90922;1275;22298;-69
2023/06/30 05:49:49;;;;;;;3.50;2.90;;;;;;;21.32;86.72;99231.17;90830;1274;137148;-69
2023/06/30 05:51:51;;;;;;;3.60;2.40;;;;;;;21.31;87.80;99231.45;90905;1273;22351;-68
2023/06/30 05:53:52;;;;;;;4.00;3.70;;;;;;;21.39;88.60;99228.73;90866;1274;138073;-68
2023/06/30 05:55:55;;;;;;;3.00;2.80;;;;;;;21.53;86.62;99222.58;90977;1273;22323;-71
2023/06/30 05:57:57;;;;;;;5.00;4.10;;;;;;;21.62;85.65;99222.59;90844;1275;136712;-69
2023/06/30 05:59:59;;;;;;;4.30;4.00;;;;;;;21.66;85.71;99221.29;90957;1273;22324;-67
2023/06/30 06:02:01;;;;;;;5.20;4.90;;;;;;;21.78;85.28;99217.41;90846;1276;139041;-68
2023/06/30 06:04:02;;;;;;;4.00;3.60;;;;;;;21.89;84.86;99220.04;90953;1276;139355;-70
2023/06/30 06:06:05;;;;;;;3.10;2.80;;;;;;;21.98;84.20;99217.92;91010;1274;22331;-71
2023/06/30 06:08:07;;;;;;;3.30;2.90;;;;;;;22.02;84.21;99219.78;90799;1276;137157;-66
2023/06/30 06:10:08;;;;;;;5.40;2.90;;;;;;;21.95;84.11;99222.14;91047;1273;22346;-67
2023/06/30 06:12:10;;;;;;;9.10;4.90;;;;;;;21.86;84.67;99224.80;90877;1275;138185;-68
2023/06/30 06:14:12;;;;;;;5.20;3.60;;;;;;;21.80;84.94;99227.74;91014;1276;22265;-68
2023/06/30 06:16:14;;;;;;;3.10;2.90;;;;;;;21.79;85.31;99229.70;90895;1275;138107;-68
2023/06/30 06:18:18;;;;;;;3.70;3.20;;;;;;;21.80;85.93;99233.12;90961;1275;22353;-68
2023/06/30 06:20:25;;;;;;;5.30;4.20;;;;;;;21.84;86.48;99227.48;90856;1275;137130;-68
2023/06/30 06:22:28;;;;;;;4.00;3.60;;;;;;;21.94;85.46;99229.09;90947;1275;22415;-71
2023/06/30 06:24:30;;;;;;;3.10;3.00;;;;;;;22.00;84.28;99232.06;90823;1275;137044;-67
2023/06/30 06:26:36;;;;;;;6.00;5.60;;;;;;;22.02;84.25;99231.29;91010;1271;22304;-68
2023/06/30 06:28:37;;;;;;;6.00;3.30;;;;;;;22.11;84.55;99230.77;90873;1274;137144;-68
2023/06/30 06:30:39;;;;;;;3.50;3.20;;;;;;;22.27;83.72;99230.63;90943;1275;22639;-68
2023/06/30 06:32:41;;;;;;;3.80;3.60;;;;;;;22.42;82.85;99233.20;90851;1272;138575;-67
2023/06/30 06:34:43;;;;;;;3.20;3.00;;;;;;;22.55;82.82;99230.84;90935;1275;22357;-68
2023/06/30 06:36:45;;;;;;;4.90;3.60;;;;;;;22.72;82.76;99228.62;90834;1275;137084;-67
2023/06/30 06:38:47;;;;;;;6.30;4.60;;;;;;;22.86;80.92;99224.48;90973;1274;22457;-79
2023/06/30 06:40:49;;;;;;;3.00;2.40;;;;;;;22.93;80.56;99223.45;90890;1274;138147;-69
2023/06/30 06:42:50;;;;;;;3.50;3.20;;;;;;;23.05;81.20;99228.05;90964;1275;22371;-68
2023/06/30 06:44:58;;;;;;;3.60;3.40;;;;;;;23.20;80.52;99225.34;90853;1273;137528;-67
2023/06/30 06:47:37;;;;;;;7.40;6.80;;;;;;;23.30;78.47;99226.36;90845;1276;23094;-73
2023/06/30 06:49:38;;;;;;;3.80;3.60;;;;;;;23.39;79.30;99224.80;90817;1275;136791;-71
2023/06/30 06:51:40;;;;;;;2.60;2.40;;;;;;;23.51;77.67;99227.77;90903;1273;22306;-75
2023/06/30 06:53:42;;;;;;;2.60;2.40;;;;;;;23.60;77.65;99227.92;90847;1273;136629;-74
2023/06/30 06:55:45;;;;;;;4.80;3.40;;;;;;;23.67;77.45;99231.75;90985;1275;22321;-76
2023/06/30 06:57:48;;;;;;;4.20;3.80;;;;;;;23.76;77.32;99229.08;90759;1276;136971;-68
2023/06/30 06:59:50;;;;;;;3.50;3.30;;;;;;;23.80;76.97;99224.58;90944;1267;22284;-75
2023/06/30 07:01:51;;;;;;;3.30;3.10;;;;;;;23.71;76.59;99210.17;90844;1275;137863;-68
2023/06/30 07:03:53;;;;;;;3.80;3.50;;;;;;;23.91;76.08;99230.87;90976;1273;23461;-69
2023/06/30 07:05:58;;;;;;;7.70;3.10;;;;;;;23.96;75.99;99233.00;90747;1277;140101;-72
2023/06/30 07:08:00;;;;;;;3.80;2.90;;;;;;;24.06;76.91;99234.36;90930;1276;22405;-70
2023/06/30 07:10:01;;;;;;;4.10;3.10;;;;;;;24.21;75.33;99235.19;90869;1279;136727;-69
2023/06/30 07:12:03;;;;;;;3.90;3.60;;;;;;;24.25;76.42;99236.46;90811;1276;139350;-68
2023/06/30 07:14:05;;;;;;;3.40;3.10;;;;;;;24.26;75.81;99224.36;90964;1275;22316;-78
2023/06/30 07:16:07;;;;;;;4.90;4.60;;;;;;;24.36;74.16;99231.54;90849;1276;137464;-69
2023/06/30 07:18:09;;;;;;;5.30;3.20;;;;;;;24.35;74.09;99230.85;90980;1262;22128;-68
2023/06/30 07:20:11;;;;;;;3.30;3.00;;;;;;;24.40;73.58;99229.96;90815;1275;137032;-68
2023/06/30 07:22:13;;;;;;;3.90;3.70;;;;;;;24.53;74.16;99226.59;90911;1275;23137;-69
2023/06/30 07:24:15;;;;;;;3.40;3.10;;;;;;;24.67;74.36;99225.56;90835;1273;137747;-68
2023/06/30 07:26:17;;;;;;;2.80;2.60;;;;;;;24.79;72.06;99223.09;90946;1275;22206;-71
2023/06/30 07:28:18;;;;;;;5.90;3.00;;;;;;;24.85;71.37;99225.49;90907;1275;139964;-70
2023/06/30 07:30:22;;;;;;;3.30;3.10;;;;;;;24.95;71.80;99224.34;90886;1276;22874;-69
2023/06/30 07:32:24;;;;;;;3.00;2.80;;;;;;;25.02;70.65;99223.72;90849;1274;137970;-69
2023/06/30 07:34:26;;;;;;;2.50;2.40;;;;;;;25.00;71.07;99226.96;90988;1263;22217;-68
2023/06/30 07:36:27;;;;;;;2.90;2.40;;;;;;;24.95;71.00;99222.04;90871;1276;137087;-68
2023/06/30 07:38:29;;;;;;;3.00;2.70;;;;;;;24.81;70.87;99223.70;90958;1275;22393;-68
2023/06/30 07:40:31;;;;;;;3.70;3.00;;;;;;;24.49;72.64;99226.77;90823;1275;138235;-70
2023/06/30 07:42:53;;;;;;;3.00;2.70;;;;;;;24.30;73.80;99224.36;90932;1274;22138;-69
2023/06/30 07:44:54;;;;;;;3.70;3.50;;;;;;;24.30;74.82;99223.66;90878;1276;137149;-70
2023/06/30 07:46:56;;;;;;;7.10;4.20;;;;;;;24.36;74.53;99224.85;90977;1275;22646;-67
2023/06/30 07:48:58;;;;;;;3.70;3.30;;;;;;;24.40;74.38;99222.52;90831;1274;138765;-68
2023/06/30 07:51:00;;;;;;;3.40;3.20;;;;;;;24.43;72.98;99220.00;90960;1276;22990;-71
2023/06/30 07:53:10;;;;;;;3.20;2.90;;;;;;;24.41;72.53;99220.52;90820;1274;137216;-68
2023/06/30 07:55:13;;;;;;;4.10;3.80;;;;;;;24.32;72.43;99218.08;90984;1270;23062;-69
2023/06/30 07:57:14;;;;;;;3.00;2.80;;;;;;;24.20;72.56;99223.19;90814;1272;137441;-73
2023/06/30 07:59:16;;;;;;;4.20;2.90;;;;;;;24.09;73.06;99222.49;90971;1275;22320;-66
2023/06/30 08:01:18;;;;;;;2.60;2.40;;;;;;;24.03;74.08;99216.04;90843;1275;137584;-67
2023/06/30 08:03:20;;;;;;;2.90;2.70;;;;;;;24.05;74.61;99216.41;90939;1276;22651;-68
2023/06/30 08:05:22;;;;;;;4.30;3.90;;;;;;;24.02;73.74;99206.58;90859;1274;138793;-68
2023/06/30 08:07:24;;;;;;;3.50;3.30;;;;;;;24.03;73.73;99214.13;90992;1275;22319;-69
2023/06/30 08:09:46;;;;;;;3.00;2.90;;;;;;;24.00;73.76;99214.58;90890;1273;137767;-72
2023/06/30 08:11:47;;;;;;;3.50;3.20;;;;;;;23.95;74.45;99208.37;90954;1275;22352;-68
2023/06/30 08:13:49;;;;;;;3.50;3.30;;;;;;;23.91;74.37;99207.09;90859;1276;138266;-68
2023/06/30 08:15:51;;;;;;;4.30;4.00;;;;;;;23.89;74.47;99210.27;90922;1275;22378;-69
2023/06/30 08:17:53;;;;;;;4.70;3.20;;;;;;;23.92;74.31;99207.73;90842;1274;137205;-72
2023/06/30 08:19:59;;;;;;;7.10;3.80;;;;;;;23.95;73.82;99207.23;90898;1275;22361;-68
2023/06/30 08:22:03;;;;;;;3.40;3.20;;;;;;;23.98;73.78;99204.71;90877;1274;137410;-70
2023/06/30 08:24:05;;;;;;;3.50;3.20;;;;;;;24.00;72.99;99198.57;90748;1276;138035;-67
2023/06/30 08:26:06;;;;;;;6.20;3.10;;;;;;;24.06;72.40;99203.13;90916;1275;23231;-72
2023/06/30 08:28:08;;;;;;;2.70;2.60;;;;;;;24.12;71.89;99206.48;90854;1275;137881;-70
2023/06/30 08:30:10;;;;;;;3.30;3.00;;;;;;;24.12;71.14;99204.80;90990;1276;22112;-68
2023/06/30 08:32:11;;;;;;;2.90;2.80;;;;;;;24.09;70.97;99205.98;90838;1274;137979;-69
2023/06/30 08:34:13;;;;;;;3.40;2.80;;;;;;;24.05;70.48;99209.80;90910;1274;23096;-75
2023/06/30 08:36:15;;;;;;;6.00;2.50;;;;;;;24.02;70.79;99209.31;90874;1275;138296;-69
2023/06/30 08:38:16;;;;;;;3.10;2.90;;;;;;;23.96;71.29;99198.88;90950;1274;22318;-70
2023/06/30 08:40:23;;;;;;;3.50;3.30;;;;;;;24.06;71.64;99207.59;90755;1275;138669;-69
2023/06/30 08:42:29;;;;;;;2.90;2.70;;;;;;;24.16;72.14;99205.14;90930;1275;22347;-70
2023/06/30 08:44:36;;;;;;;2.90;2.70;;;;;;;24.26;70.89;99202.46;90854;1275;137693;-68
2023/06/30 08:46:38;;;;;;;3.40;3.10;;;;;;;24.30;70.05;99203.13;90998;1275;22314;-66
2023/06/30 08:48:40;;;;;;;5.30;3.00;;;;;;;24.33;69.97;99197.14;90799;1275;137831;-74
2023/06/30 08:50:43;;;;;;;3.10;2.80;;;;;;;24.33;70.54;99194.15;90894;1276;22171;-71
2023/06/30 08:52:45;;;;;;;2.90;2.70;;;;;;;24.32;71.72;99193.02;90880;1276;138248;-68
2023/06/30 08:54:47;;;;;;;3.10;2.80;;;;;;;24.34;71.61;99196.64;90948;1275;22351;-68
2023/06/30 08:56:48;;;;;;;7.10;2.50;;;;;;;24.40;69.65;99198.27;90840;1275;138423;-68
2023/06/30 08:58:50;;;;;;;3.10;2.40;;;;;;;24.45;68.73;99199.25;90978;1275;22963;-72
2023/06/30 09:00:53;;;;;;;2.60;2.40;;;;;;;24.48;68.96;99200.59;90828;1275;137576;-67
2023/06/30 09:02:56;;;;;;;2.20;2.00;;;;;;;24.51;68.98;99202.06;90955;1275;23046;-67
2023/06/30 09:04:58;;;;;;;2.70;2.60;;;;;;;24.55;68.86;99196.70;90803;1275;138422;-67
2023/06/30 09:07:02;;;;;;;2.10;2.00;;;;;;;24.62;68.76;99198.60;90957;1276;23116;-67
2023/06/30 09:09:09;;;;;;;2.70;2.60;;;;;;;24.65;68.21;99196.06;90774;1275;137531;-67
2023/06/30 09:11:13;;;;;;;2.30;2.20;;;;;;;24.71;67.11;99200.07;90952;1274;23264;-71
2023/06/30 09:13:19;;;;;;;4.00;2.50;;;;;;;24.76;66.83;99202.52;90837;1276;137422;-68
2023/06/30 09:15:22;;;;;;;2.60;2.40;;;;;;;24.80;66.09;99197.57;90928;1279;22200;-67
2023/06/30 09:17:24;;;;;;;3.40;2.60;;;;;;;24.83;66.03;99194.99;90840;1275;137384;-69
2023/06/30 09:19:26;;;;;;;2.90;2.70;;;;;;;24.87;65.88;99195.92;90900;1276;22192;-67
2023/06/30 09:21:28;;;;;;;3.20;2.50;;;;;;;24.91;65.85;99190.81;90825;1275;137606;-68
2023/06/30 09:23:30;;;;;;;2.40;2.30;;;;;;;24.88;65.14;99187.17;90985;1275;22184;-68
2023/06/30 09:25:32;;;;;;;3.50;2.60;;;;;;;24.87;64.78;99193.90;90890;1275;138607;-69
2023/06/30 09:27:34;;;;;;;3.80;2.30;;;;;;;24.83;64.02;99188.02;90957;1275;22673;-68
2023/06/30 09:29:36;;;;;;;2.20;2.10;;;;;;;24.81;64.78;99187.06;90816;1275;137540;-68
2023/06/30 09:31:38;;;;;;;2.20;2.00;;;;;;;24.84;64.86;99185.00;90865;1276;22360;-69
2023/06/30 09:33:40;;;;;;;9.50;2.40;;;;;;;24.91;64.59;99187.86;90851;1276;138957;-74